createdAt,value
2018-03-22T00:02:27.703Z,29.90
2018-03-22T00:04:55.400Z,27.97
2018-03-22T00:07:23.130Z,29.07
2018-03-22T00:09:50.763Z,22.00
2018-03-22T00:12:18.445Z,31.00
2018-03-22T00:14:46.574Z,28.30
2018-03-22T00:17:14.686Z,28.60
2018-03-22T00:19:42.306Z,24.27
2018-03-22T00:25:19.633Z,24.63
2018-03-22T00:27:47.307Z,25.77
2018-03-22T00:30:14.882Z,25.08
2018-03-22T00:32:42.470Z,29.30
2018-03-22T00:35:10.419Z,33.85
2018-03-22T00:37:39.344Z,31.23
2018-03-22T00:40:06.933Z,22.60
2018-03-22T00:42:34.561Z,20.50
2018-03-22T00:45:02.116Z,21.30
2018-03-22T00:47:29.723Z,20.43
2018-03-22T00:49:57.363Z,24.90
2018-03-22T00:52:24.967Z,22.83
2018-03-22T00:54:52.543Z,25.50
2018-03-22T00:57:20.543Z,24.07
2018-03-22T00:59:48.143Z,22.10
2018-03-22T01:02:15.712Z,27.77
2018-03-22T01:04:43.283Z,26.67
2018-03-22T01:07:10.851Z,26.50
2018-03-22T01:09:38.704Z,26.52
2018-03-22T01:12:06.281Z,25.10
2018-03-22T01:14:34.346Z,21.40
2018-03-22T01:17:01.868Z,23.55
2018-03-22T01:19:29.546Z,23.70
2018-03-22T01:21:57.170Z,24.87
2018-03-22T01:24:24.775Z,27.80
2018-03-22T01:26:52.371Z,25.37
2018-03-22T01:29:20.342Z,29.03
2018-03-22T01:31:48.307Z,25.50
2018-03-22T01:34:15.853Z,27.30
2018-03-22T01:36:43.837Z,29.33
2018-03-22T01:39:11.436Z,21.33
2018-03-22T01:41:39.050Z,32.20
2018-03-22T01:44:06.685Z,19.70
2018-03-22T01:46:34.254Z,23.00
2018-03-22T01:49:03.199Z,52.13
2018-03-22T01:51:30.827Z,88.47
2018-03-22T01:53:58.747Z,55.60
2018-03-22T01:56:26.389Z,37.87
2018-03-22T01:58:53.931Z,48.03
2018-03-22T02:01:21.481Z,70.82
2018-03-22T02:03:49.064Z,36.77
2018-03-22T02:06:16.627Z,29.07
2018-03-22T02:08:44.168Z,24.40
2018-03-22T02:11:11.743Z,31.27
2018-03-22T02:13:39.306Z,19.93
2018-03-22T02:16:06.888Z,20.83
2018-03-22T02:18:34.455Z,27.43
2018-03-22T02:21:03.395Z,28.40
2018-03-22T02:23:31.178Z,27.10
2018-03-22T02:25:59.006Z,24.00
2018-03-22T02:28:27.220Z,23.60
2018-03-22T02:30:54.806Z,23.20
2018-03-22T02:33:22.348Z,32.13
2018-03-22T02:35:49.898Z,36.20
2018-03-22T02:38:17.438Z,25.93
2018-03-22T02:40:45.050Z,27.07
2018-03-22T02:43:12.799Z,50.95
2018-03-22T02:45:40.354Z,24.13
2018-03-22T02:48:07.978Z,35.30
2018-03-22T02:50:35.561Z,34.43
2018-03-22T02:53:03.145Z,32.43
2018-03-22T02:55:30.705Z,29.12
2018-03-22T02:57:58.687Z,29.13
2018-03-22T03:00:27.008Z,30.73
2018-03-22T03:02:54.566Z,31.83
2018-03-22T03:05:23.561Z,33.43
2018-03-22T03:07:52.061Z,30.77
2018-03-22T03:10:19.637Z,28.30
2018-03-22T03:12:47.196Z,29.33
2018-03-22T03:15:14.790Z,31.17
2018-03-22T03:17:42.373Z,28.90
2018-03-22T03:20:10.261Z,33.80
2018-03-22T03:22:37.919Z,31.87
2018-03-22T03:25:06.908Z,36.93
2018-03-22T03:27:34.466Z,30.70
2018-03-22T03:30:02.075Z,31.23
2018-03-22T03:32:30.505Z,34.13
2018-03-22T03:34:59.470Z,31.57
2018-03-22T03:37:27.035Z,32.67
2018-03-22T03:39:55.691Z,32.20
2018-03-22T03:42:23.270Z,30.87
2018-03-22T03:44:51.801Z,32.73
2018-03-22T03:47:19.368Z,32.15
2018-03-22T03:49:47.871Z,31.93
2018-03-22T03:52:16.202Z,34.87
2018-03-22T03:54:43.742Z,37.08
2018-03-22T03:57:11.696Z,29.90
2018-03-22T03:59:39.254Z,36.30
2018-03-22T04:02:06.805Z,33.88
2018-03-22T04:04:34.364Z,37.43
2018-03-22T04:07:01.907Z,33.35
2018-03-22T04:09:29.471Z,37.92
2018-03-22T04:11:57.034Z,37.70
2018-03-22T04:14:24.595Z,38.63
2018-03-22T04:16:52.895Z,33.57
2018-03-22T04:19:20.842Z,36.73
2018-03-22T04:21:48.460Z,31.50
2018-03-22T04:24:16.015Z,32.53
2018-03-22T04:26:43.585Z,33.63
2018-03-22T04:29:11.977Z,32.97
2018-03-22T04:31:39.599Z,24.90
2018-03-22T04:34:07.581Z,28.27
2018-03-22T04:36:35.514Z,32.42
2018-03-22T04:39:03.125Z,37.43
2018-03-22T04:41:31.405Z,29.17
2018-03-22T04:43:59.005Z,28.67
2018-03-22T04:46:26.631Z,31.13
2018-03-22T04:48:54.225Z,38.63
2018-03-22T04:51:21.766Z,34.13
2018-03-22T04:53:49.334Z,29.00
2018-03-22T04:56:16.934Z,32.20
2018-03-22T04:58:44.929Z,21.90
2018-03-22T05:01:12.506Z,33.30
2018-03-22T05:03:40.068Z,33.47
2018-03-22T05:06:07.725Z,27.85
2018-03-22T05:08:35.400Z,32.33
2018-03-22T05:11:03.009Z,31.37
2018-03-22T05:13:31.150Z,28.58
2018-03-22T05:15:59.340Z,24.73
2018-03-22T05:18:27.046Z,31.07
2018-03-22T05:20:54.736Z,33.33
2018-03-22T05:23:22.440Z,31.03
2018-03-22T05:25:50.130Z,39.93
2018-03-22T05:28:17.801Z,29.50
2018-03-22T05:30:45.490Z,31.47
2018-03-22T05:33:13.113Z,30.17
2018-03-22T05:35:45.273Z,35.97
2018-03-22T05:38:14.267Z,33.85
2018-03-22T05:40:43.325Z,29.70
2018-03-22T05:43:19.493Z,34.70
2018-03-22T05:48:28.822Z,31.87
2018-03-22T05:50:56.462Z,25.57
2018-03-22T05:53:24.272Z,33.03
2018-03-22T05:55:54.753Z,31.07
2018-03-22T05:58:22.528Z,32.90
2018-03-22T06:03:57.980Z,31.90
2018-03-22T06:06:25.664Z,27.70
2018-03-22T06:08:55.663Z,29.63
2018-03-22T06:11:23.597Z,29.45
2018-03-22T06:13:51.260Z,36.80
2018-03-22T06:16:23.450Z,29.52
2018-03-22T06:18:51.122Z,31.20
2018-03-22T06:21:20.223Z,29.73
2018-03-22T06:23:49.576Z,24.10
2018-03-22T06:26:17.631Z,30.20
2018-03-22T06:28:45.992Z,27.30
2018-03-22T06:31:14.725Z,28.13
2018-03-22T06:33:46.015Z,28.80
2018-03-22T06:36:13.768Z,25.93
2018-03-22T06:38:44.373Z,29.57
2018-03-22T06:41:23.531Z,25.73
2018-03-22T06:43:56.903Z,26.20
2018-03-22T06:46:28.372Z,31.17
2018-03-22T06:49:03.786Z,24.40
2018-03-22T06:54:09.411Z,31.30
2018-03-22T06:56:43.929Z,26.63
2018-03-22T07:02:09.038Z,28.80
2018-03-22T07:04:37.824Z,28.73
2018-03-22T07:07:17.854Z,21.30
2018-03-22T07:09:45.501Z,26.63
2018-03-22T07:12:14.301Z,31.57
2018-03-22T07:14:42.828Z,28.00
2018-03-22T07:17:11.902Z,32.50
2018-03-22T07:19:39.724Z,22.83
2018-03-22T07:22:08.124Z,23.67
2018-03-22T07:24:37.957Z,22.50
2018-03-22T07:27:05.629Z,31.20
2018-03-22T07:29:33.406Z,25.17
2018-03-22T07:32:01.092Z,21.30
2018-03-22T07:34:32.688Z,17.40
2018-03-22T07:37:01.193Z,20.30
2018-03-22T07:39:28.871Z,17.48
2018-03-22T07:41:56.516Z,18.80
2018-03-22T07:44:29.824Z,20.23
2018-03-22T07:47:00.475Z,18.20
2018-03-22T07:49:29.542Z,23.67
2018-03-22T07:55:08.035Z,14.63
2018-03-22T07:57:43.990Z,15.67
2018-03-22T08:00:14.510Z,17.63
2018-03-22T08:02:44.477Z,14.93
2018-03-22T08:05:14.316Z,18.17
2018-03-22T08:10:28.642Z,23.30
2018-03-22T08:12:56.475Z,13.70
2018-03-22T08:15:24.187Z,34.80
2018-03-22T08:17:56.621Z,20.75
2018-03-22T08:20:24.285Z,19.23
2018-03-22T08:22:54.653Z,21.20
2018-03-22T08:25:22.384Z,19.83
2018-03-22T08:28:18.695Z,20.30
2018-03-22T08:30:54.834Z,18.43
2018-03-22T08:33:25.331Z,22.00
2018-03-22T08:35:57.746Z,21.77
2018-03-22T08:38:25.764Z,27.43
2018-03-22T08:40:56.973Z,22.63
2018-03-22T08:43:24.984Z,17.60
2018-03-22T08:45:53.266Z,22.50
2018-03-22T08:48:21.078Z,22.37
2018-03-22T08:50:48.733Z,20.25
2018-03-22T08:53:16.421Z,23.93
2018-03-22T08:55:45.105Z,21.13
2018-03-22T08:58:13.336Z,26.15
2018-03-22T09:00:44.798Z,23.20
2018-03-22T09:03:12.463Z,21.90
2018-03-22T09:05:40.241Z,23.20
2018-03-22T09:08:08.357Z,27.50
2018-03-22T09:10:43.853Z,28.47
2018-03-22T09:13:11.518Z,24.97
2018-03-22T09:15:39.143Z,23.77
2018-03-22T09:18:08.958Z,22.97
2018-03-22T09:20:36.614Z,26.67
2018-03-22T09:23:06.482Z,24.27
2018-03-22T09:25:35.148Z,24.30
2018-03-22T09:28:02.847Z,26.23
2018-03-22T09:30:30.649Z,25.47
2018-03-22T09:32:58.379Z,24.12
2018-03-22T09:35:30.681Z,28.77
2018-03-22T09:37:58.756Z,23.73
2018-03-22T09:40:26.468Z,27.70
2018-03-22T09:42:54.477Z,33.35
2018-03-22T09:45:22.154Z,30.80
2018-03-22T09:47:51.487Z,32.03
2018-03-22T09:50:19.223Z,26.15
2018-03-22T09:52:46.976Z,32.80
2018-03-22T09:55:15.478Z,26.80
2018-03-22T09:57:54.376Z,33.10
2018-03-22T10:00:23.108Z,34.37
2018-03-22T10:02:52.942Z,30.00
2018-03-22T10:05:22.587Z,35.38
2018-03-22T10:07:56.620Z,31.13
2018-03-22T10:10:26.111Z,32.90
2018-03-22T10:12:55.224Z,32.80
2018-03-22T10:15:29.226Z,31.98
2018-03-22T10:18:07.211Z,37.30
2018-03-22T10:20:40.894Z,40.33
2018-03-22T10:23:22.773Z,33.97
2018-03-22T10:25:56.315Z,36.00
2018-03-22T10:31:43.041Z,39.50
2018-03-22T14:30:51.433Z,43.33
2018-03-22T14:33:55.131Z,43.90
2018-03-22T14:36:31.035Z,46.50
2018-03-22T14:39:32.269Z,45.87
2018-03-22T14:48:12.371Z,50.75
2018-03-22T15:10:46.621Z,50.70
2018-03-22T15:16:23.767Z,48.15
2018-03-22T15:22:14.392Z,50.20
2018-03-22T15:30:58.352Z,47.75
2018-03-22T16:02:37.460Z,43.30
2018-03-22T16:05:08.612Z,39.13
2018-03-22T16:08:00.875Z,41.92
2018-03-22T16:10:32.956Z,43.83
2018-03-22T16:13:05.088Z,43.13
2018-03-22T16:15:35.315Z,44.17
2018-03-22T16:18:03.917Z,41.97
2018-03-22T16:20:31.554Z,44.50
2018-03-22T16:23:01.120Z,39.13
2018-03-22T16:25:30.574Z,40.95
2018-03-22T16:28:01.149Z,42.27
2018-03-22T16:30:32.705Z,45.25
2018-03-22T16:33:02.575Z,45.83
2018-03-22T16:47:37.020Z,41.25
2018-03-22T16:50:17.747Z,33.60
2018-03-22T16:55:58.762Z,32.88
2018-03-22T16:58:46.305Z,34.63
2018-03-22T17:01:17.753Z,55.17
2018-03-22T17:04:09.900Z,32.17
2018-03-22T17:07:11.326Z,33.55
2018-03-22T17:09:46.817Z,34.97
2018-03-22T17:15:31.326Z,27.70
2018-03-22T17:18:01.635Z,31.70
2018-03-22T17:20:32.238Z,32.60
2018-03-22T17:23:05.901Z,27.95
2018-03-22T17:25:35.821Z,28.97
2018-03-22T17:28:05.832Z,31.47
2018-03-22T17:30:34.866Z,31.40
2018-03-22T17:33:05.440Z,36.93
2018-03-22T19:45:29.197Z,34.38
